createdAt,value
2022-07-26T00:00:09.097Z,25.76
2022-07-26T00:00:53.493Z,25.78
2022-07-26T00:01:38.684Z,25.77
2022-07-26T00:02:27.775Z,25.77
2022-07-26T00:03:14.429Z,25.76
2022-07-26T00:03:58.688Z,25.76
2022-07-26T00:04:44.360Z,25.77
2022-07-26T00:05:28.256Z,25.76
2022-07-26T00:06:13.098Z,25.77
2022-07-26T00:06:58.604Z,25.76
2022-07-26T00:07:43.536Z,25.76
2022-07-26T00:08:28.274Z,25.76
2022-07-26T00:09:13.144Z,25.77
2022-07-26T00:09:57.789Z,25.76
2022-07-26T00:10:41.971Z,25.77
2022-07-26T00:11:26.640Z,25.76
2022-07-26T00:12:11.131Z,25.76
2022-07-26T00:12:56.628Z,25.76
2022-07-26T00:13:41.410Z,25.77
2022-07-26T00:14:23.223Z,25.77
2022-07-26T00:15:06.946Z,25.76
2022-07-26T00:15:54.444Z,25.76
2022-07-26T00:16:43.248Z,25.76
2022-07-26T00:17:30.021Z,25.77
2022-07-26T00:18:19.340Z,25.76
2022-07-26T00:19:08.421Z,25.77
2022-07-26T00:19:55.038Z,25.78
2022-07-26T00:20:41.450Z,25.77
2022-07-26T00:21:29.001Z,25.77
2022-07-26T00:22:18.674Z,25.77
2022-07-26T00:23:06.347Z,25.77
2022-07-26T00:23:54.998Z,25.77
2022-07-26T00:24:46.585Z,25.77
2022-07-26T00:25:33.507Z,25.77
2022-07-26T00:26:18.070Z,25.77
2022-07-26T00:27:03.988Z,25.77
2022-07-26T00:27:54.285Z,25.77
2022-07-26T00:28:39.719Z,25.77
2022-07-26T00:29:29.644Z,25.77
2022-07-26T00:30:18.306Z,25.77
2022-07-26T00:31:04.822Z,25.76
2022-07-26T00:31:48.651Z,25.77
2022-07-26T00:32:38.870Z,25.78
2022-07-26T00:33:30.363Z,25.76
2022-07-26T00:36:49.449Z,25.76
2022-07-26T00:37:56.843Z,25.76
2022-07-26T00:38:55.886Z,25.75
2022-07-26T00:40:00.410Z,25.76
2022-07-26T00:41:06.422Z,25.76
2022-07-26T00:42:04.225Z,25.76
2022-07-26T00:43:15.026Z,25.76
2022-07-26T00:44:10.423Z,25.75
2022-07-26T00:45:10.187Z,25.76
2022-07-26T00:46:20.761Z,25.75
2022-07-26T00:47:14.469Z,25.75
2022-07-26T00:48:00.558Z,25.74
2022-07-26T00:48:51.595Z,25.76
2022-07-26T00:49:38.490Z,25.75
2022-07-26T00:50:30.380Z,25.76
2022-07-26T00:51:14.496Z,25.75
2022-07-26T00:52:00.198Z,25.74
2022-07-26T00:52:44.869Z,25.75
2022-07-26T00:54:26.513Z,25.74
2022-07-26T00:55:10.567Z,25.74
2022-07-26T00:55:58.445Z,25.75
2022-07-26T00:56:55.186Z,25.75
2022-07-26T00:57:43.480Z,25.76
2022-07-26T00:58:47.433Z,25.74
2022-07-26T01:02:32.541Z,25.76
2022-07-26T01:03:30.358Z,25.74
2022-07-26T01:04:30.200Z,25.74
2022-07-26T01:05:23.730Z,25.74
2022-07-26T01:06:26.973Z,25.75
2022-07-26T01:07:20.485Z,25.75
2022-07-26T01:08:11.036Z,25.76
2022-07-26T01:09:02.101Z,25.76
2022-07-26T01:09:45.752Z,25.74
2022-07-26T01:10:33.482Z,25.75
2022-07-26T01:11:20.849Z,25.76
2022-07-26T01:12:09.422Z,25.74
2022-07-26T01:13:49.353Z,25.75
2022-07-26T01:15:30.231Z,25.74
2022-07-26T01:16:30.283Z,25.74
2022-07-26T01:17:15.448Z,25.74
2022-07-26T01:18:04.160Z,25.74
2022-07-26T01:18:49.433Z,25.75
2022-07-26T01:20:35.752Z,25.74
2022-07-26T01:21:26.577Z,25.74
2022-07-26T01:22:14.385Z,25.74
2022-07-26T01:23:05.246Z,25.74
2022-07-26T01:23:51.010Z,25.74
2022-07-26T01:24:33.548Z,25.75
2022-07-26T01:25:21.176Z,25.74
2022-07-26T01:26:18.163Z,25.75
2022-07-26T01:27:10.059Z,25.75
2022-07-26T01:27:55.673Z,25.74
2022-07-26T01:29:01.100Z,25.75
2022-07-26T01:29:53.548Z,25.74
2022-07-26T01:30:41.613Z,25.74
2022-07-26T01:32:24.967Z,25.75
2022-07-26T01:33:17.977Z,25.74
2022-07-26T01:34:17.414Z,25.74
2022-07-26T01:35:09.912Z,25.75
2022-07-26T01:36:00.318Z,25.75
2022-07-26T01:36:46.497Z,25.74
2022-07-26T01:37:37.547Z,25.74
2022-07-26T01:38:23.899Z,25.74
2022-07-26T01:39:13.177Z,25.74
2022-07-26T01:40:03.891Z,25.74
2022-07-26T01:40:47.416Z,25.75
2022-07-26T01:41:38.220Z,25.74
2022-07-26T01:42:22.836Z,25.74
2022-07-26T01:43:07.475Z,25.74
2022-07-26T01:43:55.786Z,25.74
2022-07-26T01:44:45.171Z,25.74
2022-07-26T01:46:25.744Z,25.76
2022-07-26T01:47:15.809Z,25.74
2022-07-26T01:48:04.858Z,25.74
2022-07-26T01:48:56.616Z,25.74
2022-07-26T01:49:43.935Z,25.74
2022-07-26T01:50:27.513Z,25.74
2022-07-26T01:53:06.675Z,25.74
2022-07-26T01:53:51.186Z,25.74
2022-07-26T01:54:39.993Z,25.74
2022-07-26T01:57:21.491Z,25.74
2022-07-26T01:58:17.109Z,25.74
2022-07-26T01:59:08.475Z,25.74
2022-07-26T02:01:39.637Z,25.74
2022-07-26T02:03:18.077Z,25.74
2022-07-26T02:04:19.499Z,25.74
2022-07-26T02:05:07.237Z,25.74
2022-07-26T02:05:54.148Z,25.74
2022-07-26T02:06:34.646Z,25.73
2022-07-26T02:07:27.066Z,25.74
2022-07-26T02:08:17.887Z,25.74
2022-07-26T02:09:04.246Z,25.74
2022-07-26T02:09:54.606Z,25.74
2022-07-26T02:10:53.095Z,25.74
2022-07-26T02:13:53.271Z,25.74
2022-07-26T02:15:09.163Z,25.76
2022-07-26T02:16:00.772Z,25.74
2022-07-26T02:17:56.448Z,25.74
2022-07-26T02:18:45.282Z,25.74
2022-07-26T02:19:33.209Z,25.74
2022-07-26T02:20:25.966Z,25.74
2022-07-26T02:21:12.710Z,25.74
2022-07-26T02:21:55.562Z,25.74
2022-07-26T02:22:40.120Z,25.74
2022-07-26T02:23:24.762Z,25.74
2022-07-26T02:24:11.343Z,25.74
2022-07-26T02:25:04.755Z,25.74
2022-07-26T02:25:49.857Z,25.75
2022-07-26T02:26:36.353Z,25.74
2022-07-26T02:27:23.008Z,25.74
2022-07-26T02:28:08.728Z,25.74
2022-07-26T02:28:59.663Z,25.74
2022-07-26T02:29:46.658Z,25.74
2022-07-26T02:30:34.795Z,25.74
2022-07-26T02:32:22.914Z,25.74
2022-07-26T02:33:09.443Z,25.74
2022-07-26T02:33:58.614Z,25.73
2022-07-26T02:34:48.171Z,25.74
2022-07-26T02:35:35.575Z,25.73
2022-07-26T02:37:15.026Z,25.74
2022-07-26T02:38:08.628Z,25.73
2022-07-26T02:39:56.051Z,25.74
2022-07-26T02:42:33.360Z,25.74
2022-07-26T02:43:20.641Z,25.74
2022-07-26T02:44:09.990Z,25.74
2022-07-26T02:44:59.253Z,25.73
2022-07-26T02:46:01.013Z,25.73
2022-07-26T02:46:53.581Z,25.74
2022-07-26T02:47:47.696Z,25.74
2022-07-26T02:48:39.883Z,25.73
2022-07-26T02:49:28.714Z,25.74
2022-07-26T02:50:12.335Z,25.73
2022-07-26T02:51:03.005Z,25.72
2022-07-26T02:51:49.633Z,25.72
2022-07-26T02:52:37.814Z,25.73
2022-07-26T02:53:28.800Z,25.74
2022-07-26T02:54:17.100Z,25.73
2022-07-26T02:55:57.612Z,25.72
2022-07-26T02:57:46.187Z,25.73
2022-07-26T02:58:27.193Z,25.72
2022-07-26T02:59:16.495Z,25.74
2022-07-26T03:00:04.714Z,25.72
2022-07-26T03:00:57.079Z,25.73
2022-07-26T03:01:43.822Z,25.72
2022-07-26T03:02:31.638Z,25.72
2022-07-26T03:05:58.845Z,25.72
2022-07-26T03:06:46.399Z,25.73
2022-07-26T03:07:34.866Z,25.71
2022-07-26T03:08:22.829Z,25.72
2022-07-26T03:10:07.317Z,25.71
2022-07-26T03:11:04.869Z,25.72
2022-07-26T03:11:50.566Z,25.73
2022-07-26T03:12:35.905Z,25.73
2022-07-26T03:13:35.561Z,25.72
2022-07-26T03:14:20.748Z,25.72
2022-07-26T03:15:11.613Z,25.71
2022-07-26T03:16:01.169Z,25.72
2022-07-26T03:16:49.399Z,25.72
2022-07-26T03:17:37.471Z,25.73
2022-07-26T03:18:25.050Z,25.72
2022-07-26T03:19:11.595Z,25.72
2022-07-26T03:19:58.381Z,25.71
2022-07-26T03:20:46.616Z,25.73
2022-07-26T03:21:32.859Z,25.73
2022-07-26T03:22:22.938Z,25.73
2022-07-26T03:23:11.291Z,25.73
2022-07-26T03:23:59.639Z,25.73
2022-07-26T03:24:45.231Z,25.72
2022-07-26T03:25:30.720Z,25.72
2022-07-26T03:26:20.169Z,25.72
2022-07-26T03:27:10.715Z,25.72
2022-07-26T03:27:58.081Z,25.72
2022-07-26T03:28:44.499Z,25.72
2022-07-26T03:29:34.066Z,25.71
2022-07-26T03:30:24.897Z,25.71
2022-07-26T03:31:10.784Z,25.73
2022-07-26T03:31:58.667Z,25.72
2022-07-26T03:32:44.954Z,25.73
2022-07-26T03:33:33.690Z,25.74
2022-07-26T03:34:23.617Z,25.72
2022-07-26T03:35:09.793Z,25.71
2022-07-26T03:35:57.719Z,25.72
2022-07-26T03:36:41.111Z,25.72
2022-07-26T03:37:44.839Z,25.72
2022-07-26T03:38:29.823Z,25.73
2022-07-26T03:39:20.160Z,25.71
2022-07-26T03:40:08.468Z,25.71
2022-07-26T03:40:52.121Z,25.71
2022-07-26T03:41:34.351Z,25.72
2022-07-26T03:42:24.607Z,25.72
2022-07-26T03:43:13.357Z,25.72
2022-07-26T03:43:58.431Z,25.71
2022-07-26T03:44:47.137Z,25.71
2022-07-26T03:45:40.905Z,25.73
2022-07-26T03:46:29.177Z,25.71
2022-07-26T03:47:23.231Z,25.72
2022-07-26T03:48:17.351Z,25.73
2022-07-26T03:49:13.262Z,25.72
2022-07-26T03:51:55.339Z,25.71
2022-07-26T03:52:38.694Z,25.72
2022-07-26T03:53:28.738Z,25.71
2022-07-26T03:54:13.062Z,25.71
2022-07-26T03:55:01.123Z,25.71
2022-07-26T03:55:53.582Z,25.71
2022-07-26T03:56:38.148Z,25.71
2022-07-26T03:57:32.273Z,25.72
2022-07-26T03:58:25.828Z,25.72
2022-07-26T03:59:15.403Z,25.71
2022-07-26T04:00:02.429Z,25.72
2022-07-26T04:01:46.186Z,25.72
2022-07-26T04:02:30.650Z,25.71
2022-07-26T04:03:23.908Z,25.71
2022-07-26T04:04:30.640Z,25.72
2022-07-26T04:05:23.408Z,25.71
2022-07-26T04:06:08.262Z,25.72
2022-07-26T04:06:54.846Z,25.72
2022-07-26T04:07:38.419Z,25.71
2022-07-26T04:08:27.888Z,25.71
2022-07-26T04:09:14.432Z,25.72
2022-07-26T04:10:07.373Z,25.72
2022-07-26T04:10:53.036Z,25.71
2022-07-26T04:11:47.311Z,25.71
2022-07-26T04:12:30.750Z,25.72
2022-07-26T04:13:18.665Z,25.72
2022-07-26T04:14:08.451Z,25.72
2022-07-26T04:14:58.420Z,25.72
2022-07-26T04:15:47.573Z,25.71
2022-07-26T04:16:42.932Z,25.72
2022-07-26T04:17:29.982Z,25.72
2022-07-26T04:18:15.518Z,25.71
2022-07-26T04:18:59.639Z,25.72
2022-07-26T04:19:44.507Z,25.72
2022-07-26T04:20:31.881Z,25.73
2022-07-26T04:23:12.630Z,25.72
2022-07-26T04:25:07.295Z,25.72
2022-07-26T04:26:07.636Z,25.72
2022-07-26T04:27:03.439Z,25.71
2022-07-26T04:28:12.847Z,25.72
2022-07-26T04:28:50.208Z,25.71
2022-07-26T04:29:26.868Z,25.72
2022-07-26T04:30:03.651Z,25.71
2022-07-26T04:30:40.463Z,25.71
2022-07-26T04:31:18.427Z,25.72
2022-07-26T04:31:55.837Z,25.72
2022-07-26T04:32:32.827Z,25.71
2022-07-26T04:33:08.242Z,25.72
2022-07-26T04:33:44.666Z,25.72
2022-07-26T04:34:21.303Z,25.72
2022-07-26T04:34:57.515Z,25.71
2022-07-26T04:35:33.926Z,25.73
2022-07-26T04:36:11.644Z,25.72
2022-07-26T04:36:47.257Z,25.73
2022-07-26T04:37:23.043Z,25.73
2022-07-26T04:37:58.913Z,25.73
2022-07-26T04:38:35.133Z,25.73
2022-07-26T04:39:11.674Z,25.72
2022-07-26T04:39:51.671Z,25.72
2022-07-26T04:40:30.345Z,25.72
2022-07-26T04:41:07.121Z,25.73
2022-07-26T04:41:43.334Z,25.73
2022-07-26T04:42:19.442Z,25.71
2022-07-26T04:43:00.911Z,25.72
2022-07-26T04:43:39.293Z,25.73
2022-07-26T04:44:19.761Z,25.73
2022-07-26T04:44:58.704Z,25.73
2022-07-26T04:45:38.997Z,25.73
2022-07-26T04:46:17.132Z,25.74
2022-07-26T04:46:57.326Z,25.73
2022-07-26T04:47:35.804Z,25.73
2022-07-26T04:48:11.651Z,25.73
2022-07-26T04:48:47.513Z,25.73
2022-07-26T04:49:23.606Z,25.73
2022-07-26T04:50:00.212Z,25.73
2022-07-26T04:50:37.179Z,25.73
2022-07-26T04:51:13.803Z,25.73
2022-07-26T04:51:50.350Z,25.73
2022-07-26T04:52:26.094Z,25.72
2022-07-26T04:53:02.694Z,25.74
2022-07-26T04:53:39.466Z,25.74
2022-07-26T04:54:15.647Z,25.73
2022-07-26T04:54:52.412Z,25.72
2022-07-26T04:55:28.663Z,25.73
2022-07-26T04:56:05.321Z,25.74
2022-07-26T04:56:41.787Z,25.73
2022-07-26T04:57:18.361Z,25.72
2022-07-26T04:57:55.140Z,25.72
2022-07-26T04:58:31.575Z,25.73
2022-07-26T04:59:09.687Z,25.73
2022-07-26T04:59:58.143Z,25.74
2022-07-26T05:01:08.604Z,25.74
2022-07-26T05:01:36.678Z,25.74
2022-07-26T05:02:13.690Z,25.72
2022-07-26T05:02:51.319Z,25.73
2022-07-26T05:03:27.495Z,25.72
2022-07-26T05:04:02.973Z,25.74
2022-07-26T05:04:39.888Z,25.74
2022-07-26T05:05:17.297Z,25.74
2022-07-26T05:05:53.860Z,25.72
2022-07-26T05:06:30.700Z,25.74
2022-07-26T05:07:06.382Z,25.73
2022-07-26T05:07:43.002Z,25.74
2022-07-26T05:08:19.811Z,25.74
2022-07-26T05:08:56.425Z,25.74
2022-07-26T05:09:32.177Z,25.73
2022-07-26T05:10:08.964Z,25.72
2022-07-26T05:10:45.796Z,25.73
2022-07-26T05:11:22.108Z,25.74
2022-07-26T05:11:59.050Z,25.73
2022-07-26T05:12:40.636Z,25.74
2022-07-26T05:13:23.082Z,25.72
2022-07-26T05:14:08.733Z,25.73
2022-07-26T05:14:46.690Z,25.73
2022-07-26T05:15:24.343Z,25.73
2022-07-26T05:16:03.516Z,25.73
2022-07-26T05:16:49.731Z,25.73
2022-07-26T05:17:27.424Z,25.73
2022-07-26T05:18:13.523Z,25.73
2022-07-26T05:18:53.420Z,25.74
2022-07-26T05:19:32.889Z,25.73
2022-07-26T05:20:10.396Z,25.73
2022-07-26T05:20:46.666Z,25.74
2022-07-26T05:21:23.636Z,25.73
2022-07-26T05:22:00.515Z,25.72
2022-07-26T05:22:36.932Z,25.74
2022-07-26T05:23:14.140Z,25.74
2022-07-26T05:23:50.792Z,25.73
2022-07-26T05:24:26.697Z,25.73
2022-07-26T05:25:03.112Z,25.73
2022-07-26T05:25:40.005Z,25.73
2022-07-26T05:26:16.628Z,25.72
2022-07-26T05:26:58.261Z,25.73
2022-07-26T05:27:34.186Z,25.73
2022-07-26T05:28:10.506Z,25.73
2022-07-26T05:28:46.831Z,25.73
2022-07-26T05:29:22.709Z,25.73
2022-07-26T05:29:59.547Z,25.73
2022-07-26T05:30:35.675Z,25.72
2022-07-26T05:31:12.454Z,25.73
2022-07-26T05:31:49.124Z,25.73
2022-07-26T05:32:26.041Z,25.74
2022-07-26T05:33:02.238Z,25.74
2022-07-26T05:33:38.995Z,25.74
2022-07-26T05:34:15.560Z,25.74
2022-07-26T05:34:51.236Z,25.74
2022-07-26T05:35:28.118Z,25.73
2022-07-26T05:36:04.079Z,25.73
2022-07-26T05:36:40.948Z,25.74
2022-07-26T05:37:17.429Z,25.72
2022-07-26T05:37:53.763Z,25.74
2022-07-26T05:38:30.009Z,25.73
2022-07-26T05:39:06.332Z,25.74
2022-07-26T05:39:43.618Z,25.74
2022-07-26T05:40:23.083Z,25.74
2022-07-26T05:41:01.261Z,25.74
2022-07-26T05:41:41.379Z,25.74
2022-07-26T05:42:22.978Z,25.73
2022-07-26T05:43:03.830Z,25.74
2022-07-26T05:43:44.316Z,25.73
2022-07-26T05:44:23.882Z,25.73
2022-07-26T05:45:01.922Z,25.72
2022-07-26T05:45:38.938Z,25.74
2022-07-26T05:46:15.928Z,25.72
2022-07-26T05:46:52.108Z,25.73
2022-07-26T05:47:29.189Z,25.72
2022-07-26T05:48:06.842Z,25.74
2022-07-26T05:48:44.060Z,25.74
2022-07-26T05:49:20.545Z,25.74
2022-07-26T05:49:57.108Z,25.73
2022-07-26T05:50:32.428Z,25.74
2022-07-26T05:51:09.234Z,25.73
2022-07-26T05:51:46.224Z,25.74
2022-07-26T05:52:23.167Z,25.73
2022-07-26T05:53:00.019Z,25.74
2022-07-26T05:53:36.145Z,25.73
2022-07-26T05:54:13.450Z,25.75
2022-07-26T05:54:49.829Z,25.73
2022-07-26T05:55:25.554Z,25.73
2022-07-26T05:56:02.482Z,25.73
2022-07-26T05:56:39.058Z,25.74
2022-07-26T05:57:15.693Z,25.73
2022-07-26T05:57:52.065Z,25.73
2022-07-26T05:58:28.290Z,25.74
2022-07-26T05:59:04.970Z,25.73
2022-07-26T05:59:40.689Z,25.74
2022-07-26T06:00:16.587Z,25.74
2022-07-26T06:00:54.707Z,25.74
2022-07-26T06:01:32.085Z,25.74
2022-07-26T06:02:09.275Z,25.73
2022-07-26T06:02:46.952Z,25.73
2022-07-26T06:03:28.058Z,25.73
2022-07-26T06:04:11.392Z,25.74
2022-07-26T06:04:48.132Z,25.74
2022-07-26T06:05:28.792Z,25.73
2022-07-26T06:06:10.814Z,25.73
2022-07-26T06:06:54.495Z,25.73
2022-07-26T06:07:35.670Z,25.73
2022-07-26T06:08:16.316Z,25.72
2022-07-26T06:08:57.416Z,25.73
2022-07-26T06:09:39.080Z,25.73
2022-07-26T06:10:19.652Z,25.73
2022-07-26T06:11:01.111Z,25.72
2022-07-26T06:11:39.486Z,25.73
2022-07-26T06:12:15.832Z,25.73
2022-07-26T06:12:52.404Z,25.72
2022-07-26T06:13:29.394Z,25.72
2022-07-26T06:14:05.801Z,25.73
2022-07-26T06:14:42.004Z,25.73
2022-07-26T06:15:18.013Z,25.74
2022-07-26T06:15:54.582Z,25.73
2022-07-26T06:16:31.486Z,25.73
2022-07-26T06:17:07.752Z,25.73
2022-07-26T06:17:44.684Z,25.73
2022-07-26T06:18:21.882Z,25.74
2022-07-26T06:18:58.346Z,25.73
2022-07-26T06:19:34.538Z,25.72
2022-07-26T06:20:10.710Z,25.74
2022-07-26T06:20:46.588Z,25.73
2022-07-26T06:21:23.862Z,25.73
2022-07-26T06:22:00.017Z,25.72
2022-07-26T06:22:35.990Z,25.73
2022-07-26T06:23:13.019Z,25.73
2022-07-26T06:23:50.076Z,25.73
2022-07-26T06:24:26.138Z,25.73
2022-07-26T06:25:01.532Z,25.73
2022-07-26T06:25:38.936Z,25.73
2022-07-26T06:26:15.808Z,25.74
2022-07-26T06:26:56.590Z,25.72
2022-07-26T06:27:32.711Z,25.73
2022-07-26T06:28:09.319Z,25.72
2022-07-26T06:28:46.451Z,25.73
2022-07-26T06:29:23.414Z,25.72
2022-07-26T06:30:07.032Z,25.73
2022-07-26T06:30:42.668Z,25.73
2022-07-26T06:31:19.965Z,25.74
2022-07-26T06:31:57.267Z,25.73
2022-07-26T06:32:33.657Z,25.74
2022-07-26T06:33:10.992Z,25.73
2022-07-26T06:33:47.276Z,25.73
2022-07-26T06:34:25.114Z,25.73
2022-07-26T06:35:00.299Z,25.74
2022-07-26T06:35:31.764Z,25.73
2022-07-26T06:36:03.124Z,25.73
2022-07-26T06:36:34.550Z,25.73
2022-07-26T06:37:05.881Z,25.73
2022-07-26T06:37:37.276Z,25.73
2022-07-26T06:38:08.719Z,25.73
2022-07-26T06:39:24.322Z,25.73
2022-07-26T06:40:07.092Z,25.73
2022-07-26T06:40:53.554Z,25.73
2022-07-26T06:41:36.862Z,25.73
2022-07-26T06:42:23.376Z,25.72
2022-07-26T06:43:12.903Z,25.73
2022-07-26T06:44:05.694Z,25.73
2022-07-26T06:45:02.442Z,25.73
2022-07-26T06:45:57.717Z,25.72
2022-07-26T06:46:42.813Z,25.73
2022-07-26T06:47:25.978Z,25.72
2022-07-26T06:48:10.261Z,25.73
2022-07-26T06:48:57.016Z,25.73
2022-07-26T06:49:41.801Z,25.72
2022-07-26T06:50:35.204Z,25.72
2022-07-26T06:51:37.670Z,25.73
2022-07-26T06:52:22.087Z,25.72
2022-07-26T06:53:05.060Z,25.73
2022-07-26T06:53:49.297Z,25.72
2022-07-26T06:54:40.617Z,25.72
2022-07-26T06:55:29.574Z,25.73
2022-07-26T06:56:35.322Z,25.73
2022-07-26T06:57:50.163Z,25.72
2022-07-26T06:58:40.320Z,25.72
2022-07-26T06:59:32.904Z,25.72
2022-07-26T07:00:19.824Z,25.72
2022-07-26T07:01:01.143Z,25.71
2022-07-26T07:01:57.538Z,25.72
2022-07-26T07:02:43.045Z,25.71
2022-07-26T07:03:37.021Z,25.72
2022-07-26T07:04:28.180Z,25.71
2022-07-26T07:05:23.075Z,25.71
2022-07-26T07:06:06.143Z,25.71
2022-07-26T07:06:54.690Z,25.72
2022-07-26T07:07:44.045Z,25.72
2022-07-26T07:08:38.597Z,25.71
2022-07-26T07:09:23.339Z,25.71
2022-07-26T07:10:12.652Z,25.73
2022-07-26T07:11:12.588Z,25.72
2022-07-26T07:12:03.386Z,25.72
2022-07-26T07:12:55.317Z,25.71
2022-07-26T07:13:49.282Z,25.72
2022-07-26T07:14:37.071Z,25.72
2022-07-26T07:15:31.112Z,25.72
2022-07-26T07:16:13.010Z,25.73
2022-07-26T07:17:03.345Z,25.72
2022-07-26T07:17:51.282Z,25.72
2022-07-26T07:19:26.841Z,25.72
2022-07-26T07:20:20.721Z,25.71
2022-07-26T07:21:04.275Z,25.72
2022-07-26T07:22:31.022Z,25.71
2022-07-26T07:23:16.938Z,25.71
2022-07-26T07:24:09.876Z,25.72
2022-07-26T07:25:00.844Z,25.71
2022-07-26T07:25:50.445Z,25.72
2022-07-26T07:26:43.018Z,25.72
2022-07-26T07:27:30.081Z,25.71
2022-07-26T07:28:19.743Z,25.71
2022-07-26T07:29:05.770Z,25.72
2022-07-26T07:29:57.159Z,25.72
2022-07-26T07:30:42.193Z,25.72
2022-07-26T07:31:48.574Z,25.71
2022-07-26T07:32:35.295Z,25.72
2022-07-26T07:33:36.558Z,25.72
2022-07-26T07:34:25.463Z,25.72
2022-07-26T07:35:16.890Z,25.73
2022-07-26T07:35:59.919Z,25.72
2022-07-26T07:36:52.612Z,25.72
2022-07-26T07:37:53.418Z,25.72
2022-07-26T07:38:42.826Z,25.73
2022-07-26T07:39:34.893Z,25.73
2022-07-26T07:40:22.953Z,25.71
2022-07-26T07:41:14.820Z,25.72
2022-07-26T07:41:56.026Z,25.73
2022-07-26T07:42:46.394Z,25.73
2022-07-26T07:43:30.066Z,25.71
2022-07-26T07:44:21.513Z,25.72
2022-07-26T07:45:07.231Z,25.73
2022-07-26T07:45:59.220Z,25.73
2022-07-26T07:46:43.741Z,25.71
2022-07-26T07:47:36.015Z,25.72
2022-07-26T07:48:23.050Z,25.72
2022-07-26T07:49:14.321Z,25.73
2022-07-26T07:50:00.466Z,25.73
2022-07-26T07:50:50.793Z,25.72
2022-07-26T07:51:36.460Z,25.72
2022-07-26T07:52:24.736Z,25.73
2022-07-26T07:53:09.468Z,25.72
2022-07-26T07:53:58.635Z,25.72
2022-07-26T07:54:39.443Z,25.72
2022-07-26T07:55:40.941Z,25.73
2022-07-26T07:56:25.838Z,25.72
2022-07-26T07:57:12.102Z,25.72
2022-07-26T07:57:56.769Z,25.72
2022-07-26T07:58:47.193Z,25.72
2022-07-26T07:59:31.509Z,25.72
2022-07-26T08:00:26.851Z,25.73
2022-07-26T08:01:21.843Z,25.72
2022-07-26T08:02:21.605Z,25.72
2022-07-26T08:03:17.919Z,25.72
2022-07-26T08:04:09.786Z,25.72
2022-07-26T08:06:22.605Z,25.70
2022-07-26T08:07:36.153Z,25.71
2022-07-26T08:09:35.554Z,25.71
2022-07-26T08:10:34.104Z,25.71
2022-07-26T08:11:50.929Z,25.71
2022-07-26T08:12:35.211Z,25.71
2022-07-26T08:13:22.819Z,25.70
2022-07-26T08:14:10.914Z,25.71
2022-07-26T08:14:53.317Z,25.71
2022-07-26T08:15:39.717Z,25.70
2022-07-26T08:16:24.194Z,25.71
2022-07-26T08:17:10.995Z,25.72
2022-07-26T08:17:57.571Z,25.70
2022-07-26T08:18:55.797Z,25.71
2022-07-26T08:19:42.466Z,25.71
2022-07-26T08:20:26.588Z,25.71
2022-07-26T08:21:10.007Z,25.71
2022-07-26T08:21:57.196Z,25.71
2022-07-26T08:22:46.533Z,25.72
2022-07-26T08:23:52.016Z,25.72
2022-07-26T08:24:49.673Z,25.72
2022-07-26T08:25:33.942Z,25.73
2022-07-26T08:26:26.925Z,25.72
2022-07-26T08:27:15.192Z,25.71
2022-07-26T08:28:30.714Z,25.72
2022-07-26T08:29:16.665Z,25.72
2022-07-26T08:30:07.717Z,25.71
2022-07-26T08:30:53.214Z,25.72
2022-07-26T08:31:43.454Z,25.71
2022-07-26T08:32:32.372Z,25.71
2022-07-26T08:33:17.102Z,25.71
2022-07-26T08:34:13.579Z,25.71
2022-07-26T08:35:19.596Z,25.72
2022-07-26T08:36:03.337Z,25.72
2022-07-26T08:37:15.382Z,25.71
2022-07-26T08:37:58.815Z,25.72
2022-07-26T08:38:47.581Z,25.72
2022-07-26T08:39:30.217Z,25.71
2022-07-26T08:40:21.964Z,25.71
2022-07-26T08:41:12.221Z,25.72
2022-07-26T08:41:56.167Z,25.72
2022-07-26T08:42:47.264Z,25.71
2022-07-26T08:43:52.008Z,25.72
2022-07-26T08:44:41.729Z,25.71
2022-07-26T08:45:27.101Z,25.71
2022-07-26T08:46:16.102Z,25.71
2022-07-26T08:47:00.756Z,25.71
2022-07-26T08:48:15.025Z,25.71
2022-07-26T08:48:49.602Z,25.71
2022-07-26T08:49:33.263Z,25.72
2022-07-26T08:50:17.531Z,25.72
2022-07-26T08:51:06.130Z,25.72
2022-07-26T08:51:52.024Z,25.72
2022-07-26T08:52:42.965Z,25.73
2022-07-26T08:53:28.917Z,25.72
2022-07-26T08:54:14.545Z,25.71
2022-07-26T08:55:02.230Z,25.72
2022-07-26T08:56:08.426Z,25.72
2022-07-26T08:56:52.144Z,25.72
2022-07-26T08:57:36.625Z,25.72
2022-07-26T08:58:22.696Z,25.73
2022-07-26T08:59:19.136Z,25.72
2022-07-26T09:00:06.369Z,25.72
2022-07-26T09:00:54.187Z,25.72
2022-07-26T09:01:38.226Z,25.73
2022-07-26T09:02:26.723Z,25.72
2022-07-26T09:03:12.259Z,25.73
2022-07-26T09:03:59.291Z,25.72
2022-07-26T09:04:45.003Z,25.72
2022-07-26T09:05:27.625Z,25.72
2022-07-26T09:06:16.275Z,25.72
2022-07-26T09:07:05.910Z,25.73
2022-07-26T09:07:48.636Z,25.72
2022-07-26T09:08:40.385Z,25.72
2022-07-26T09:09:30.112Z,25.72
2022-07-26T09:10:20.718Z,25.73
2022-07-26T09:11:00.958Z,25.72
2022-07-26T09:11:41.314Z,25.72
2022-07-26T09:12:30.183Z,25.72
2022-07-26T09:13:26.045Z,25.72
2022-07-26T09:14:38.363Z,25.71
2022-07-26T09:15:36.012Z,25.72
2022-07-26T09:16:33.361Z,25.72
2022-07-26T09:17:37.622Z,25.72
2022-07-26T09:19:25.449Z,25.72
2022-07-26T09:20:37.602Z,25.72
2022-07-26T09:21:35.805Z,25.72
2022-07-26T09:22:31.203Z,25.71
2022-07-26T09:23:26.067Z,25.72
2022-07-26T09:24:16.129Z,25.71
2022-07-26T09:25:09.072Z,25.71
2022-07-26T09:26:01.656Z,25.71
2022-07-26T09:26:57.642Z,25.71
2022-07-26T09:27:52.287Z,25.72
2022-07-26T09:28:49.874Z,25.71
2022-07-26T09:29:46.811Z,25.70
2022-07-26T09:31:40.228Z,25.71
2022-07-26T09:32:36.475Z,25.71
2022-07-26T09:33:33.704Z,25.71
2022-07-26T09:34:28.675Z,25.71
2022-07-26T09:35:49.973Z,25.72
2022-07-26T09:36:26.168Z,25.71
2022-07-26T09:38:25.564Z,25.71
2022-07-26T09:39:34.085Z,25.71
2022-07-26T09:41:23.058Z,25.71
2022-07-26T09:42:32.377Z,25.71
2022-07-26T09:44:20.141Z,25.71
2022-07-26T09:46:18.686Z,25.72
2022-07-26T09:50:23.043Z,25.71
2022-07-26T09:51:16.271Z,25.70
2022-07-26T09:52:19.403Z,25.71
2022-07-26T09:53:17.832Z,25.70
2022-07-26T09:54:10.083Z,25.71
2022-07-26T09:56:14.809Z,25.70
2022-07-26T09:57:15.728Z,25.70
2022-07-26T09:59:07.965Z,25.71
2022-07-26T09:59:59.901Z,25.69
2022-07-26T10:00:52.753Z,25.70
2022-07-26T10:03:25.779Z,25.70
2022-07-26T10:04:09.281Z,25.71
2022-07-26T10:04:55.884Z,25.70
2022-07-26T10:05:51.184Z,25.70
2022-07-26T10:06:59.283Z,25.70
2022-07-26T10:09:11.922Z,25.70
2022-07-26T10:10:02.898Z,25.70
2022-07-26T10:10:53.722Z,25.70
2022-07-26T10:11:42.323Z,25.70
2022-07-26T10:12:30.794Z,25.70
2022-07-26T10:13:18.199Z,25.70
2022-07-26T10:14:06.950Z,25.70
2022-07-26T10:15:03.204Z,25.70
2022-07-26T10:15:47.845Z,25.71
2022-07-26T10:16:42.162Z,25.71
2022-07-26T10:17:35.849Z,25.71
2022-07-26T10:18:20.175Z,25.71
2022-07-26T10:19:10.516Z,25.70
2022-07-26T10:19:57.919Z,25.70
2022-07-26T10:20:47.835Z,25.71
2022-07-26T10:21:36.783Z,25.71
2022-07-26T10:22:24.922Z,25.70
2022-07-26T10:23:12.075Z,25.71
2022-07-26T10:23:57.701Z,25.71
2022-07-26T10:24:46.745Z,25.71
2022-07-26T10:25:35.241Z,25.71
2022-07-26T10:26:26.418Z,25.71
2022-07-26T10:27:14.641Z,25.71
2022-07-26T10:28:11.963Z,25.71
2022-07-26T10:28:59.096Z,25.71
2022-07-26T10:29:52.876Z,25.72
2022-07-26T10:30:41.493Z,25.71
2022-07-26T10:31:36.064Z,25.71
2022-07-26T10:32:21.265Z,25.72
2022-07-26T10:33:06.988Z,25.72
2022-07-26T10:33:55.118Z,25.72
2022-07-26T10:34:47.718Z,25.73
2022-07-26T10:35:32.472Z,25.72
2022-07-26T10:36:23.496Z,25.72
2022-07-26T10:37:06.366Z,25.72
2022-07-26T10:37:59.337Z,25.72
2022-07-26T10:38:43.165Z,25.72
2022-07-26T10:39:35.853Z,25.71
2022-07-26T10:40:20.034Z,25.71
2022-07-26T10:41:53.480Z,25.72
2022-07-26T10:42:42.997Z,25.72
2022-07-26T10:43:41.143Z,25.71
2022-07-26T10:44:27.856Z,25.73
2022-07-26T10:45:10.803Z,25.71
2022-07-26T10:46:02.106Z,25.71
2022-07-26T10:46:47.383Z,25.71
2022-07-26T10:47:36.297Z,25.73
2022-07-26T10:48:19.915Z,25.71
2022-07-26T10:49:08.207Z,25.72
2022-07-26T10:49:54.155Z,25.71
2022-07-26T10:50:43.681Z,25.71
2022-07-26T10:51:29.752Z,25.72
2022-07-26T10:52:14.936Z,25.71
2022-07-26T10:53:05.909Z,25.71
2022-07-26T10:53:55.073Z,25.72
2022-07-26T10:54:42.555Z,25.72
2022-07-26T10:56:23.061Z,25.71
2022-07-26T10:57:16.946Z,25.71
2022-07-26T10:58:01.741Z,25.72